Time;durP1;ratioP1;P1;durP2;ratioP2;P2;SDS_P1;SDS_P2;PMS_P1;PMS_P2;Temp;Humidity;BMP_temperature;BMP_pressure;BME280_temperature;BME280_humidity;BME280_pressure;Samples;Min_cycle;Max_cycle;Signal;HPM_P1;HPM_P2
2023/07/09 00:00:48;;;;;;;7.88;4.50;;;;;;;19.06;100.00;93202.22;4954868;29;20034;-81
2023/07/09 00:03:15;;;;;;;8.23;4.60;;;;;;;19.03;100.00;93208.16;4956045;28;20035;-81
2023/07/09 00:05:42;;;;;;;10.02;4.60;;;;;;;19.01;100.00;93211.13;4955713;28;20160;-81
2023/07/09 00:08:29;;;;;;;9.43;4.60;;;;;;;18.98;100.00;93206.47;4954731;29;20105;-81
2023/07/09 00:10:55;;;;;;;12.20;4.93;;;;;;;18.94;100.00;93210.88;4951335;29;20047;-81
2023/07/09 00:13:23;;;;;;;7.45;4.45;;;;;;;18.92;100.00;93207.75;4938694;29;20074;-81
2023/07/09 00:15:49;;;;;;;9.18;4.65;;;;;;;18.87;100.00;93211.38;4955405;28;20027;-81
2023/07/09 00:18:15;;;;;;;8.35;4.22;;;;;;;18.84;100.00;93212.00;4955268;29;20035;-81
2023/07/09 00:20:43;;;;;;;13.73;5.03;;;;;;;18.81;100.00;93207.34;4955539;29;20043;-81
2023/07/09 00:23:13;;;;;;;8.00;4.03;;;;;;;18.80;100.00;93211.09;4954183;28;20400;-81
2023/07/09 00:25:44;;;;;;;10.27;4.40;;;;;;;18.79;100.00;93203.44;4955325;28;20643;-81
2023/07/09 00:28:19;;;;;;;10.43;4.43;;;;;;;18.75;100.00;93205.91;4955651;29;20035;-81
2023/07/09 00:30:46;;;;;;;8.80;4.70;;;;;;;18.73;100.00;93200.16;4955315;29;20035;-81
2023/07/09 00:33:14;;;;;;;11.13;4.78;;;;;;;18.68;100.00;93195.03;4942866;29;20037;-82
2023/07/09 00:35:44;;;;;;;7.82;4.40;;;;;;;18.64;100.00;93196.78;4957785;28;20039;-81
2023/07/09 00:38:15;;;;;;;7.45;4.40;;;;;;;18.61;100.00;93197.41;4958268;29;20031;-81
2023/07/09 00:40:59;;;;;;;8.27;4.60;;;;;;;18.57;100.00;93193.84;4959213;29;20042;-80
2023/07/09 00:43:29;;;;;;;7.95;4.50;;;;;;;18.53;100.00;93199.03;4957269;29;20030;-81
2023/07/09 00:46:19;;;;;;;10.88;4.57;;;;;;;18.49;100.00;93196.22;4941200;29;20069;-81
2023/07/09 00:49:04;;;;;;;7.45;4.22;;;;;;;18.44;100.00;93196.41;4957497;28;20058;-81
2023/07/09 00:51:33;;;;;;;7.75;4.50;;;;;;;18.42;100.00;93201.22;4978724;28;20034;-81
2023/07/09 00:54:21;;;;;;;9.52;4.65;;;;;;;18.40;100.00;93210.59;4954086;29;20477;-81
2023/07/09 00:56:51;;;;;;;8.30;4.80;;;;;;;18.37;100.00;93208.56;4941364;29;20481;-81
2023/07/09 00:59:22;;;;;;;9.95;4.40;;;;;;;18.34;100.00;93207.31;4958886;28;20031;-81
2023/07/09 01:01:50;;;;;;;7.90;4.47;;;;;;;18.34;100.00;93215.28;4944106;29;20041;-81
2023/07/09 01:04:19;;;;;;;8.07;4.78;;;;;;;18.31;100.00;93207.97;4957415;29;20400;-81
2023/07/09 01:06:50;;;;;;;10.35;4.57;;;;;;;18.28;100.00;93214.69;4958560;28;20027;-82
2023/07/09 01:09:17;;;;;;;8.05;4.80;;;;;;;18.27;100.00;93210.47;4958871;29;20035;-81
2023/07/09 01:11:42;;;;;;;11.38;5.18;;;;;;;18.27;100.00;93215.00;4958660;29;20039;-81
2023/07/09 01:14:13;;;;;;;7.22;4.22;;;;;;;18.26;100.00;93218.72;4947353;29;20312;-81
2023/07/09 01:16:46;;;;;;;11.45;4.55;;;;;;;18.25;100.00;93220.59;4958430;28;20042;-81
2023/07/09 01:19:13;;;;;;;8.88;4.43;;;;;;;18.27;100.00;93220.28;4941107;29;20035;-81
2023/07/09 01:21:40;;;;;;;6.15;3.88;;;;;;;18.24;100.00;93220.94;4941274;29;20687;-81
2023/07/09 01:24:47;;;;;;;6.65;4.13;;;;;;;18.25;100.00;93223.25;4958326;29;20038;-81
2023/07/09 01:27:13;;;;;;;7.95;4.43;;;;;;;18.25;100.00;93225.91;4918387;29;20043;-81
2023/07/09 01:29:41;;;;;;;6.25;4.50;;;;;;;18.22;100.00;93218.59;4939510;29;20032;-81
2023/07/09 01:32:07;;;;;;;8.15;4.40;;;;;;;18.19;100.00;93221.06;4939558;29;20051;-81
2023/07/09 01:34:33;;;;;;;10.57;4.75;;;;;;;18.13;100.00;93219.72;4953432;29;20042;-80
2023/07/09 01:36:59;;;;;;;10.82;4.57;;;;;;;18.07;100.00;93221.72;4957174;28;20039;-80
2023/07/09 01:39:28;;;;;;;9.43;4.60;;;;;;;18.01;100.00;93220.31;4941258;29;20098;-81
2023/07/09 01:41:54;;;;;;;8.77;4.25;;;;;;;17.96;100.00;93215.97;4940754;29;20046;-81
2023/07/09 01:44:20;;;;;;;7.78;4.45;;;;;;;17.94;100.00;93217.38;4940583;29;20375;-79
2023/07/09 01:46:46;;;;;;;8.73;4.50;;;;;;;17.91;100.00;93218.03;4955977;28;20564;-80
2023/07/09 01:49:12;;;;;;;10.18;4.55;;;;;;;17.85;100.00;93210.22;4955479;28;20130;-82
2023/07/09 01:51:38;;;;;;;7.30;4.20;;;;;;;17.79;100.00;93210.69;4957966;29;20035;-82
2023/07/09 01:54:04;;;;;;;7.78;4.50;;;;;;;17.78;100.00;93217.06;4953114;29;20035;-82
2023/07/09 01:56:30;;;;;;;8.68;4.50;;;;;;;17.76;100.00;93216.59;4957967;28;20043;-81
2023/07/09 01:59:01;;;;;;;7.82;4.72;;;;;;;17.76;100.00;93219.25;4955992;29;20031;-82
2023/07/09 02:01:29;;;;;;;11.32;4.85;;;;;;;17.74;100.00;93214.25;4957480;28;20038;-82
2023/07/09 02:03:54;;;;;;;6.88;4.10;;;;;;;17.74;100.00;93218.78;4957099;28;20055;-81
2023/07/09 02:06:24;;;;;;;7.85;4.63;;;;;;;17.74;100.00;93221.41;4934164;29;20580;-81
2023/07/09 02:08:49;;;;;;;13.68;4.93;;;;;;;17.74;100.00;93213.47;4955106;29;20051;-81
2023/07/09 02:11:15;;;;;;;10.52;4.75;;;;;;;17.72;100.00;93216.44;4940481;29;20043;-82
2023/07/09 02:13:41;;;;;;;8.98;4.18;;;;;;;17.74;100.00;93219.53;4957418;29;20023;-82
2023/07/09 02:16:07;;;;;;;10.43;4.10;;;;;;;17.73;100.00;93220.66;4940971;29;20047;-81
2023/07/09 02:18:34;;;;;;;9.77;4.68;;;;;;;17.73;100.00;93217.22;4940757;29;20035;-81
2023/07/09 02:21:00;;;;;;;8.18;4.40;;;;;;;17.69;100.00;93212.53;4957770;29;20394;-81
2023/07/09 02:23:27;;;;;;;8.43;4.35;;;;;;;17.67;100.00;93213.94;4939732;29;20082;-82
2023/07/09 02:25:53;;;;;;;7.45;4.43;;;;;;;17.65;100.00;93226.72;4957506;28;20043;-82
2023/07/09 02:28:19;;;;;;;8.70;4.63;;;;;;;17.62;100.00;93222.81;4924479;29;20474;-81
2023/07/09 02:30:45;;;;;;;9.02;4.93;;;;;;;17.60;100.00;93222.34;4957948;29;20164;-82
2023/07/09 02:33:11;;;;;;;7.88;4.90;;;;;;;17.58;100.00;93221.09;4956706;29;20118;-81
2023/07/09 02:35:37;;;;;;;8.13;4.57;;;;;;;17.57;100.00;93224.84;4939720;28;20031;-82
2023/07/09 02:38:04;;;;;;;7.32;4.03;;;;;;;17.56;100.00;93228.59;4957361;29;20031;-81
2023/07/09 02:40:30;;;;;;;10.63;5.10;;;;;;;17.54;100.00;93226.25;4939624;29;20087;-81
2023/07/09 02:42:55;;;;;;;7.10;4.75;;;;;;;17.53;100.00;93229.97;4938451;29;20027;-82
2023/07/09 02:45:21;;;;;;;8.18;4.93;;;;;;;17.52;100.00;93228.44;4957736;28;20556;-81
2023/07/09 02:47:47;;;;;;;7.75;4.60;;;;;;;17.51;100.00;93226.09;4937195;29;20054;-81
2023/07/09 02:50:13;;;;;;;9.77;5.07;;;;;;;17.48;100.00;93225.63;4955043;29;20078;-81
2023/07/09 02:52:39;;;;;;;9.65;4.82;;;;;;;17.52;100.00;93232.94;4954948;29;20046;-81
2023/07/09 02:55:05;;;;;;;11.40;4.25;;;;;;;17.49;100.00;93231.69;4954503;28;20075;-81
2023/07/09 02:57:31;;;;;;;8.35;4.43;;;;;;;17.48;100.00;93232.78;4954512;29;20114;-82
2023/07/09 02:59:57;;;;;;;11.82;4.78;;;;;;;17.44;100.00;93231.84;4956442;29;20065;-81
2023/07/09 03:02:23;;;;;;;7.10;4.30;;;;;;;17.43;100.00;93236.38;4938812;29;20054;-81
2023/07/09 03:04:48;;;;;;;9.45;4.18;;;;;;;17.43;100.00;93238.25;4939841;28;20042;-81
2023/07/09 03:07:14;;;;;;;8.18;4.50;;;;;;;17.42;100.00;93242.75;4956791;29;20059;-81
2023/07/09 03:09:39;;;;;;;7.78;4.95;;;;;;;17.43;100.00;93240.88;4938471;29;20051;-81
2023/07/09 03:12:06;;;;;;;6.35;4.38;;;;;;;17.41;100.00;93241.19;4945479;29;20050;-81
2023/07/09 03:14:32;;;;;;;9.30;4.80;;;;;;;17.40;100.00;93236.19;4955280;28;20035;-82
2023/07/09 03:16:58;;;;;;;7.65;4.60;;;;;;;17.40;100.00;93241.50;4956332;28;20045;-82
2023/07/09 03:19:23;;;;;;;8.63;4.50;;;;;;;17.41;100.00;93237.78;4956566;28;20043;-82
2023/07/09 03:21:49;;;;;;;11.13;4.63;;;;;;;17.41;100.00;93240.41;4941015;29;20027;-81
2023/07/09 03:24:18;;;;;;;7.35;4.47;;;;;;;17.41;100.00;93235.13;4954789;29;20044;-81
2023/07/09 03:26:45;;;;;;;9.18;4.80;;;;;;;17.40;100.00;93236.19;4956347;28;20027;-82
2023/07/09 03:29:11;;;;;;;7.88;4.65;;;;;;;17.39;100.00;93237.31;4929444;29;20541;-82
2023/07/09 03:31:37;;;;;;;11.95;4.82;;;;;;;17.38;100.00;93241.03;4940587;29;20063;-81
2023/07/09 03:34:03;;;;;;;9.55;4.93;;;;;;;17.36;100.00;93235.25;4941304;29;20071;-81
2023/07/09 03:36:29;;;;;;;10.00;4.82;;;;;;;17.35;100.00;93239.00;4936903;29;20028;-82
2023/07/09 03:38:56;;;;;;;8.82;4.72;;;;;;;17.35;100.00;93237.13;4952398;29;20039;-81
2023/07/09 03:41:21;;;;;;;7.72;4.50;;;;;;;17.35;100.00;93236.34;4955883;29;20070;-82
2023/07/09 03:43:49;;;;;;;10.45;4.75;;;;;;;17.35;100.00;93241.66;4956411;28;20450;-82
2023/07/09 03:46:15;;;;;;;8.85;4.60;;;;;;;17.34;100.00;93237.44;4956165;28;20077;-82
2023/07/09 03:48:41;;;;;;;6.93;4.28;;;;;;;17.36;100.00;93237.91;4938770;29;20606;-81
2023/07/09 03:51:06;;;;;;;8.25;4.57;;;;;;;17.36;100.00;93244.00;4955256;28;20031;-81
2023/07/09 03:53:32;;;;;;;8.23;4.70;;;;;;;17.36;100.00;93238.69;4955614;29;20410;-81
2023/07/09 03:55:59;;;;;;;9.73;4.85;;;;;;;17.36;100.00;93241.34;4955271;28;20512;-81
2023/07/09 03:58:26;;;;;;;7.22;4.50;;;;;;;17.38;100.00;93241.03;4956541;29;20497;-82
2023/07/09 04:00:53;;;;;;;10.18;4.22;;;;;;;17.38;100.00;93241.03;4956736;29;20031;-81
2023/07/09 04:03:19;;;;;;;8.35;4.47;;;;;;;17.37;100.00;93242.91;4968612;28;20039;-82
2023/07/09 04:05:47;;;;;;;10.65;5.03;;;;;;;17.33;100.00;93236.66;4970339;28;20394;-81
2023/07/09 04:08:13;;;;;;;6.80;4.32;;;;;;;17.39;100.00;93242.59;4958070;29;20098;-82
2023/07/09 04:10:38;;;;;;;9.98;4.68;;;;;;;17.42;100.00;93241.97;4957996;29;20035;-82
2023/07/09 04:13:04;;;;;;;8.93;4.72;;;;;;;17.44;100.00;93242.44;4960221;29;20044;-82
2023/07/09 04:15:29;;;;;;;8.07;4.60;;;;;;;17.46;100.00;93245.56;4958613;28;20035;-82
2023/07/09 04:17:55;;;;;;;10.43;4.55;;;;;;;17.48;100.00;93246.78;4958823;28;20042;-82
2023/07/09 04:20:21;;;;;;;9.50;4.32;;;;;;;17.50;100.00;93246.50;4958635;29;20396;-82
2023/07/09 04:22:46;;;;;;;10.32;4.70;;;;;;;17.54;100.00;93242.16;4942182;29;20513;-80
2023/07/09 04:25:13;;;;;;;8.30;4.40;;;;;;;17.56;100.00;93237.31;4957910;28;20023;-81
2023/07/09 04:27:39;;;;;;;9.55;4.88;;;;;;;17.63;100.00;93240.28;4959410;29;20035;-82
2023/07/09 04:30:11;;;;;;;8.48;4.43;;;;;;;17.68;100.00;93237.47;4950699;29;20093;-82
2023/07/09 04:32:37;;;;;;;8.75;5.45;;;;;;;17.73;100.00;93246.34;4959297;29;20027;-81
2023/07/09 04:35:06;;;;;;;8.90;4.60;;;;;;;17.77;100.00;93244.66;4959542;28;20050;-81
2023/07/09 04:37:32;;;;;;;8.43;4.57;;;;;;;17.81;100.00;93242.91;4959367;29;20047;-81
2023/07/09 04:39:57;;;;;;;10.15;4.47;;;;;;;17.84;100.00;93237.81;4959801;29;20031;-82
2023/07/09 04:42:23;;;;;;;10.23;5.28;;;;;;;17.88;100.00;93237.97;4959407;29;20039;-82
2023/07/09 04:44:49;;;;;;;6.53;3.83;;;;;;;17.92;100.00;93241.53;4942647;28;20557;-82
2023/07/09 04:47:15;;;;;;;9.18;4.20;;;;;;;17.95;100.00;93237.50;4958735;29;20395;-82
2023/07/09 04:49:41;;;;;;;10.27;4.47;;;;;;;17.96;100.00;93236.38;4958515;28;20046;-82
2023/07/09 04:52:11;;;;;;;8.43;4.15;;;;;;;18.04;100.00;93236.38;4942226;29;20102;-82
2023/07/09 04:54:39;;;;;;;7.45;4.32;;;;;;;18.10;100.00;93239.63;4942186;29;20114;-82
2023/07/09 04:57:05;;;;;;;8.10;4.32;;;;;;;18.15;100.00;93242.16;4957494;28;20035;-82
2023/07/09 04:59:31;;;;;;;8.27;4.32;;;;;;;18.19;100.00;93244.94;4958017;28;20115;-81
2023/07/09 05:01:57;;;;;;;7.32;4.30;;;;;;;18.25;100.00;93241.03;4955902;29;20040;-80
2023/07/09 05:04:22;;;;;;;7.47;4.43;;;;;;;18.30;100.00;93240.84;4956122;29;20634;-81
2023/07/09 05:06:48;;;;;;;10.85;4.78;;;;;;;18.35;100.00;93248.66;4957302;28;20039;-82
2023/07/09 05:09:13;;;;;;;8.93;4.43;;;;;;;18.41;100.00;93247.38;4958468;29;20102;-82
2023/07/09 05:11:39;;;;;;;12.18;4.70;;;;;;;18.45;100.00;93239.56;4957899;29;20044;-82
2023/07/09 05:14:05;;;;;;;7.72;4.50;;;;;;;18.50;100.00;93245.47;4944302;28;20043;-82
2023/07/09 05:16:30;;;;;;;6.90;4.45;;;;;;;18.58;100.00;93249.22;4956789;28;20055;-80
2023/07/09 05:18:56;;;;;;;6.90;4.10;;;;;;;18.64;100.00;93244.50;4957506;28;20117;-82
2023/07/09 05:21:21;;;;;;;7.22;4.30;;;;;;;18.70;100.00;93243.22;4958126;28;20375;-82
2023/07/09 05:23:47;;;;;;;7.00;4.32;;;;;;;18.77;100.00;93248.84;4955686;28;20019;-82
2023/07/09 05:26:13;;;;;;;7.65;4.25;;;;;;;18.84;100.00;93249.13;4941540;29;20273;-82
2023/07/09 05:28:38;;;;;;;9.18;4.53;;;;;;;18.93;100.00;93251.75;4958700;28;20027;-81
2023/07/09 05:31:04;;;;;;;7.18;4.15;;;;;;;19.08;100.00;93247.78;4958380;29;20532;-81
2023/07/09 05:33:30;;;;;;;8.52;4.18;;;;;;;19.21;100.00;93252.09;4940575;29;20033;-82
2023/07/09 05:35:56;;;;;;;9.60;4.28;;;;;;;19.30;100.00;93249.38;4958466;28;20638;-82
2023/07/09 05:38:22;;;;;;;8.10;4.50;;;;;;;19.41;100.00;93260.38;4946659;29;20042;-82
2023/07/09 05:40:48;;;;;;;7.05;4.15;;;;;;;19.45;100.00;93256.00;4965868;28;20031;-81
2023/07/09 05:43:14;;;;;;;9.60;4.60;;;;;;;19.51;100.00;93254.72;4958282;29;20027;-82
2023/07/09 05:45:40;;;;;;;9.82;5.63;;;;;;;19.59;100.00;93256.53;4967394;28;20090;-82
2023/07/09 05:48:06;;;;;;;10.90;4.43;;;;;;;19.67;100.00;93258.34;4956134;28;20052;-82
2023/07/09 05:50:34;;;;;;;8.82;4.15;;;;;;;19.82;100.00;93264.22;4957382;29;20043;-82
2023/07/09 05:53:00;;;;;;;8.02;4.10;;;;;;;20.30;100.00;93262.84;4955675;29;20058;-82
2023/07/09 05:55:26;;;;;;;11.32;4.30;;;;;;;21.03;100.00;93272.09;4949118;29;20075;-82
2023/07/09 05:57:53;;;;;;;9.48;4.40;;;;;;;21.71;100.00;93266.97;4954403;28;20074;-82
2023/07/09 06:00:18;;;;;;;10.32;4.63;;;;;;;22.47;100.00;93269.06;4957441;29;20035;-79
2023/07/09 06:02:44;;;;;;;10.50;4.50;;;;;;;23.14;100.00;93277.25;4937570;29;20355;-79
2023/07/09 06:05:10;;;;;;;13.45;4.82;;;;;;;23.74;98.89;93274.41;4960139;28;20046;-80
2023/07/09 06:07:37;;;;;;;9.18;4.38;;;;;;;24.26;94.48;93270.53;4941668;29;20023;-79
2023/07/09 06:10:05;;;;;;;10.27;4.45;;;;;;;24.77;88.91;93278.38;4956130;28;20062;-80
2023/07/09 06:12:31;;;;;;;9.88;4.40;;;;;;;25.20;87.07;93270.31;4956998;29;20042;-80
2023/07/09 06:14:56;;;;;;;8.23;4.60;;;;;;;25.67;81.11;93275.22;4951449;28;20039;-80
2023/07/09 06:17:22;;;;;;;8.50;4.70;;;;;;;26.04;80.35;93277.25;4951932;29;20330;-81
2023/07/09 06:19:47;;;;;;;6.95;4.25;;;;;;;26.27;81.49;93274.47;4956197;29;20367;-79
2023/07/09 06:22:13;;;;;;;9.18;4.60;;;;;;;26.57;76.93;93271.00;4954752;28;20058;-80
2023/07/09 06:24:39;;;;;;;7.90;4.60;;;;;;;26.70;77.24;93280.34;4954955;29;20383;-80
2023/07/09 06:27:04;;;;;;;8.23;4.65;;;;;;;26.75;77.48;93280.03;4936585;28;20114;-80
2023/07/09 06:29:30;;;;;;;7.43;4.72;;;;;;;26.78;77.17;93273.91;4956071;28;20035;-77
2023/07/09 06:31:56;;;;;;;7.15;4.57;;;;;;;26.63;77.35;93280.25;4952512;28;20138;-79
2023/07/09 06:34:22;;;;;;;9.00;4.53;;;;;;;26.66;77.59;93271.50;4948462;29;20492;-79
2023/07/09 06:36:47;;;;;;;8.13;4.47;;;;;;;26.52;77.37;93271.28;4947828;28;20031;-77
2023/07/09 06:39:13;;;;;;;8.65;4.70;;;;;;;26.09;78.89;93273.50;4956029;28;20035;-83
2023/07/09 06:41:38;;;;;;;8.57;4.40;;;;;;;25.59;80.68;93267.44;4952717;28;20031;-77
2023/07/09 06:44:07;;;;;;;8.57;4.80;;;;;;;25.64;86.85;93269.81;4938784;28;20047;-80
2023/07/09 06:46:33;;;;;;;10.45;4.50;;;;;;;25.72;88.37;93266.09;4954183;28;20035;-78
2023/07/09 06:49:00;;;;;;;7.78;4.70;;;;;;;25.55;85.45;93273.50;4948270;28;20043;-81
2023/07/09 06:51:25;;;;;;;8.63;4.57;;;;;;;24.94;89.77;93266.41;4951310;29;20047;-79
2023/07/09 06:53:51;;;;;;;8.13;4.97;;;;;;;24.45;93.01;93267.84;4951441;29;20040;-78
2023/07/09 06:56:17;;;;;;;8.50;4.85;;;;;;;23.79;98.31;93269.56;4959086;28;20446;-79
2023/07/09 06:58:42;;;;;;;8.85;5.00;;;;;;;23.55;100.00;93267.09;4954290;28;20078;-78
2023/07/09 07:01:10;;;;;;;8.82;5.13;;;;;;;23.54;100.00;93269.00;4952277;29;20102;-77
2023/07/09 07:03:36;;;;;;;9.15;4.90;;;;;;;23.49;100.00;93264.72;4952678;28;20035;-79
2023/07/09 07:06:02;;;;;;;10.25;4.75;;;;;;;23.52;100.00;93267.81;4960217;28;20062;-81
2023/07/09 07:08:28;;;;;;;12.00;4.50;;;;;;;23.40;100.00;93266.81;4947068;29;20130;-82
2023/07/09 07:11:02;;;;;;;9.57;4.82;;;;;;;23.53;100.00;93261.34;4939213;28;20075;-81
2023/07/09 07:13:29;;;;;;;6.80;4.68;;;;;;;23.75;100.00;93267.94;4950070;29;20039;-80
2023/07/09 07:15:55;;;;;;;9.82;4.80;;;;;;;23.56;100.00;93266.78;4950142;28;20036;-81
2023/07/09 07:18:20;;;;;;;6.78;4.38;;;;;;;23.54;100.00;93263.66;4949976;29;20043;-81
2023/07/09 07:20:46;;;;;;;6.50;4.40;;;;;;;23.59;100.00;93267.97;4952808;28;20465;-83
2023/07/09 07:23:12;;;;;;;8.30;4.90;;;;;;;23.66;100.00;93268.91;4930998;28;20090;-82
2023/07/09 07:25:38;;;;;;;7.97;4.97;;;;;;;23.56;100.00;93271.34;4918756;29;20135;-81
2023/07/09 07:28:04;;;;;;;6.72;4.53;;;;;;;23.75;98.82;93262.59;4950234;28;20284;-80
2023/07/09 07:30:30;;;;;;;8.50;4.75;;;;;;;24.11;93.93;93272.13;4950450;28;20037;-79
2023/07/09 07:32:55;;;;;;;8.68;4.50;;;;;;;24.31;92.83;93265.66;4949792;29;20031;-82
2023/07/09 07:35:21;;;;;;;7.82;4.63;;;;;;;24.54;91.47;93264.94;4936949;29;20540;-83
2023/07/09 07:37:47;;;;;;;10.85;4.88;;;;;;;24.55;92.65;93271.09;4945694;29;20075;-82
2023/07/09 07:40:12;;;;;;;8.10;4.93;;;;;;;24.59;92.06;93269.22;4944674;28;20042;-80
2023/07/09 07:42:38;;;;;;;8.32;4.97;;;;;;;24.50;91.81;93266.81;4946377;29;20051;-81
2023/07/09 07:45:05;;;;;;;7.43;4.88;;;;;;;24.42;94.54;93262.41;4954449;28;20027;-82
2023/07/09 07:47:30;;;;;;;8.40;4.80;;;;;;;24.36;95.06;93266.50;4949391;29;20065;-81
2023/07/09 07:49:57;;;;;;;8.18;4.30;;;;;;;24.25;96.16;93268.97;4948871;28;20086;-83
2023/07/09 07:52:23;;;;;;;7.60;4.50;;;;;;;24.08;98.47;93264.81;4931467;29;20051;-82
2023/07/09 07:54:49;;;;;;;10.40;4.55;;;;;;;24.17;96.07;93257.34;4930874;28;20042;-83
2023/07/09 07:57:14;;;;;;;8.50;4.63;;;;;;;24.20;96.31;93250.53;4932959;29;20031;-81
2023/07/09 07:59:40;;;;;;;10.10;4.03;;;;;;;24.26;94.39;93255.25;4949538;29;20037;-81
2023/07/09 08:02:11;;;;;;;9.85;5.13;;;;;;;24.14;94.38;93263.44;4931254;29;20073;-80
2023/07/09 08:04:38;;;;;;;7.82;4.82;;;;;;;24.17;93.25;93262.72;4949845;28;20023;-83
2023/07/09 08:07:03;;;;;;;9.05;4.57;;;;;;;24.22;91.30;93257.06;4954664;28;20066;-81
2023/07/09 08:09:29;;;;;;;8.90;4.43;;;;;;;24.25;92.45;93258.25;4940184;29;20583;-82
2023/07/09 08:11:55;;;;;;;7.00;4.25;;;;;;;24.33;90.14;93256.50;4948681;28;20047;-82
2023/07/09 08:14:21;;;;;;;7.22;4.35;;;;;;;24.47;88.83;93254.88;4929378;29;20497;-79
2023/07/09 08:16:47;;;;;;;7.30;4.38;;;;;;;24.49;90.57;93262.56;4928190;29;20792;-79
2023/07/09 08:19:13;;;;;;;8.20;4.70;;;;;;;24.35;91.28;93256.94;4950211;29;20039;-82
2023/07/09 08:21:39;;;;;;;9.27;4.50;;;;;;;24.36;93.13;93253.13;4945181;28;20035;-80
2023/07/09 08:24:05;;;;;;;8.80;4.70;;;;;;;24.36;92.66;93248.53;4947365;29;20027;-83
2023/07/09 08:26:31;;;;;;;10.00;5.05;;;;;;;24.43;94.50;93253.25;4948918;28;20559;-80
2023/07/09 08:28:56;;;;;;;7.45;4.80;;;;;;;24.45;90.08;93257.13;4930895;29;20035;-82
2023/07/09 08:31:22;;;;;;;8.35;4.78;;;;;;;24.57;90.13;93253.56;4949125;28;20031;-83
2023/07/09 08:33:48;;;;;;;9.00;4.93;;;;;;;24.76;88.04;93252.72;4951818;29;20119;-82
2023/07/09 08:36:13;;;;;;;7.20;4.40;;;;;;;24.87;89.62;93252.91;4953320;28;20119;-82
2023/07/09 08:38:39;;;;;;;10.57;4.43;;;;;;;24.77;90.73;93253.50;4952899;29;20461;-81
2023/07/09 08:41:04;;;;;;;9.93;5.13;;;;;;;24.75;89.64;93250.41;4936862;29;20039;-81
2023/07/09 08:44:03;;;;;;;7.97;4.43;;;;;;;24.74;90.06;93249.63;4937948;29;20116;-82
2023/07/09 08:46:29;;;;;;;8.35;4.47;;;;;;;24.54;90.16;93253.47;4954572;28;20126;-81
2023/07/09 08:48:58;;;;;;;16.50;4.70;;;;;;;24.55;92.49;93252.38;4936010;29;20499;-80
2023/07/09 08:51:38;;;;;;;11.18;4.57;;;;;;;24.53;90.59;93250.03;4954189;29;20047;-80
2023/07/09 08:54:13;;;;;;;8.30;4.70;;;;;;;24.51;94.04;93249.63;4955446;28;20027;-81
2023/07/09 08:56:39;;;;;;;11.15;4.78;;;;;;;24.45;88.95;93253.66;4958023;28;20027;-82
2023/07/09 08:59:05;;;;;;;9.60;5.00;;;;;;;24.70;90.88;93252.25;4946726;29;20150;-80
2023/07/09 09:01:36;;;;;;;8.85;4.85;;;;;;;24.86;88.64;93251.38;4934701;29;20042;-82
2023/07/09 09:04:26;;;;;;;10.23;5.90;;;;;;;25.03;89.80;93253.56;4953549;29;20027;-79
2023/07/09 09:07:06;;;;;;;11.88;4.95;;;;;;;24.84;90.71;93256.31;4964652;28;20393;-81
2023/07/09 09:09:44;;;;;;;10.88;5.43;;;;;;;24.88;91.35;93254.44;4956919;28;20035;-79
2023/07/09 09:12:19;;;;;;;8.45;4.80;;;;;;;24.91;92.11;93262.56;4954362;29;20367;-81
2023/07/09 09:14:56;;;;;;;10.85;5.13;;;;;;;25.10;93.05;93252.91;4947630;28;20039;-78
2023/07/09 09:17:26;;;;;;;6.88;4.68;;;;;;;25.01;90.64;93263.84;4950374;29;20035;-79
2023/07/09 09:19:55;;;;;;;7.68;4.60;;;;;;;25.00;91.18;93256.97;4946620;29;20478;-79
2023/07/09 09:22:36;;;;;;;8.32;4.40;;;;;;;24.92;94.89;93255.28;4951240;28;20067;-79
2023/07/09 09:25:18;;;;;;;8.40;4.72;;;;;;;25.05;92.38;93256.66;4952429;28;20036;-78
2023/07/09 09:27:44;;;;;;;8.07;5.00;;;;;;;25.04;91.96;93251.63;4947159;28;20043;-78
2023/07/09 09:30:14;;;;;;;7.75;4.78;;;;;;;24.84;94.28;93250.97;4945863;29;20109;-78
2023/07/09 09:32:45;;;;;;;9.02;4.63;;;;;;;25.07;88.86;93254.38;4948209;29;20091;-77
2023/07/09 09:35:16;;;;;;;9.23;4.57;;;;;;;25.26;93.51;93252.78;4927718;29;20106;-78
2023/07/09 09:37:49;;;;;;;9.63;4.50;;;;;;;25.36;90.13;93249.50;4956065;28;20039;-80
2023/07/09 09:40:18;;;;;;;7.75;4.57;;;;;;;25.60;91.30;93252.91;4953109;28;20038;-78
2023/07/09 09:42:43;;;;;;;13.13;4.80;;;;;;;25.74;89.84;93250.44;4939755;28;20458;-78
2023/07/09 09:45:16;;;;;;;8.68;4.53;;;;;;;25.89;89.45;93244.13;4938276;29;20059;-78
2023/07/09 09:47:43;;;;;;;9.32;4.82;;;;;;;26.02;87.68;93246.59;4954914;29;20039;-79
2023/07/09 09:50:20;;;;;;;6.88;4.00;;;;;;;25.84;86.41;93246.31;4954381;29;20053;-80
2023/07/09 09:52:48;;;;;;;9.35;4.90;;;;;;;26.02;85.19;93251.94;4951918;28;20050;-79
2023/07/09 09:55:22;;;;;;;13.25;4.90;;;;;;;26.03;86.62;93258.84;4933927;29;20035;-79
2023/07/09 09:57:50;;;;;;;7.95;4.75;;;;;;;26.24;84.99;93256.44;4953366;28;20094;-79
2023/07/09 10:00:16;;;;;;;9.95;5.18;;;;;;;26.15;86.69;93253.25;4954788;28;20877;-78
2023/07/09 10:02:45;;;;;;;7.45;4.70;;;;;;;26.28;85.72;93248.44;4944999;29;20050;-80
2023/07/09 10:05:21;;;;;;;9.93;4.90;;;;;;;26.17;86.17;93246.38;4951522;28;20178;-82
2023/07/09 10:07:53;;;;;;;7.97;4.22;;;;;;;26.35;82.26;93245.81;4951983;28;20146;-81
2023/07/09 10:10:24;;;;;;;9.95;5.10;;;;;;;26.39;84.62;93243.97;4950025;29;20043;-81
2023/07/09 10:13:04;;;;;;;9.60;4.72;;;;;;;26.13;84.99;93248.25;4935732;29;20114;-81
2023/07/09 10:16:03;;;;;;;7.03;4.63;;;;;;;26.18;83.36;93252.53;4953919;28;20027;-81
2023/07/09 10:18:34;;;;;;;8.45;4.57;;;;;;;26.23;84.54;93254.91;4952626;29;20071;-80
2023/07/09 10:21:24;;;;;;;9.43;4.82;;;;;;;26.16;85.54;93257.47;4951282;29;20042;-80
2023/07/09 10:23:59;;;;;;;9.80;4.70;;;;;;;26.10;84.07;93258.97;4953838;29;20523;-79
2023/07/09 10:26:57;;;;;;;9.60;4.75;;;;;;;26.21;81.77;93254.50;4952798;28;20040;-80
2023/07/09 10:30:07;;;;;;;6.90;4.25;;;;;;;26.31;81.65;93253.06;4930923;29;20133;-78
2023/07/09 10:32:53;;;;;;;6.88;4.50;;;;;;;26.15;82.58;93256.72;4894098;29;20036;-78
2023/07/09 10:35:47;;;;;;;7.93;4.60;;;;;;;26.43;82.53;93249.34;4931072;29;20039;-79
2023/07/09 10:38:25;;;;;;;7.65;4.60;;;;;;;26.55;76.51;93252.59;4954193;28;20067;-79
2023/07/09 10:40:57;;;;;;;6.82;4.20;;;;;;;26.79;73.70;93253.97;4951608;29;20031;-80
2023/07/09 10:43:52;;;;;;;11.95;4.68;;;;;;;26.87;76.82;93257.50;4951604;29;20244;-79
2023/07/09 10:46:25;;;;;;;9.30;4.40;;;;;;;26.83;76.37;93256.69;4953985;28;20242;-79
2023/07/09 10:48:54;;;;;;;7.63;4.35;;;;;;;26.84;73.73;93249.38;4951997;28;20086;-81
2023/07/09 10:51:28;;;;;;;6.93;4.63;;;;;;;26.97;72.04;93246.06;4955310;29;20110;-79
2023/07/09 10:54:03;;;;;;;11.05;4.60;;;;;;;26.62;68.62;93246.50;4948881;29;20101;-79
2023/07/09 10:56:32;;;;;;;7.88;4.75;;;;;;;26.98;72.29;93242.25;4945769;28;20552;-77
2023/07/09 10:59:05;;;;;;;8.65;3.88;;;;;;;27.09;65.72;93247.72;4948483;28;20031;-79
2023/07/09 11:01:45;;;;;;;7.75;4.50;;;;;;;27.12;66.15;93246.19;4952384;28;20035;-78
2023/07/09 11:04:25;;;;;;;6.20;4.20;;;;;;;27.04;68.91;93242.66;4948294;28;20397;-79
2023/07/09 11:06:53;;;;;;;9.90;4.15;;;;;;;27.16;69.23;93242.38;4953888;28;20050;-79
2023/07/09 11:09:35;;;;;;;6.75;4.07;;;;;;;27.07;64.90;93233.88;4955351;29;20039;-79
2023/07/09 11:12:11;;;;;;;6.65;4.07;;;;;;;27.09;66.06;93242.34;4955166;28;20363;-79
2023/07/09 11:14:49;;;;;;;6.28;4.00;;;;;;;26.99;64.31;93243.78;4950248;28;20127;-78
2023/07/09 11:17:19;;;;;;;7.47;4.10;;;;;;;27.12;67.03;93236.22;4935424;29;20031;-78
2023/07/09 11:20:00;;;;;;;8.40;4.13;;;;;;;27.22;66.28;93234.75;4955057;29;20034;-78
2023/07/09 11:22:37;;;;;;;10.23;4.80;;;;;;;27.30;67.58;93224.84;4954894;29;20034;-78
2023/07/09 11:25:13;;;;;;;8.60;4.35;;;;;;;27.27;70.36;93225.59;4954278;28;20126;-78
2023/07/09 11:27:50;;;;;;;11.48;4.78;;;;;;;27.29;70.66;93224.09;4953511;29;20043;-79
2023/07/09 11:30:26;;;;;;;8.23;4.35;;;;;;;27.14;70.35;93217.03;4951694;29;20106;-78
2023/07/09 11:33:04;;;;;;;7.00;4.50;;;;;;;27.38;71.04;93221.84;4947380;28;20062;-79
2023/07/09 11:35:51;;;;;;;7.47;4.40;;;;;;;27.41;70.29;93223.00;4947294;28;20039;-78